createdAt,value
2018-09-18T00:01:18.694Z,4.00
2018-09-18T00:03:50.254Z,3.77
2018-09-18T00:06:21.951Z,3.90
2018-09-18T00:08:53.483Z,3.70
2018-09-18T00:11:25.211Z,3.87
2018-09-18T00:13:57.146Z,3.73
2018-09-18T00:16:29.110Z,3.83
2018-09-18T00:19:00.522Z,3.83
2018-09-18T00:21:31.809Z,4.03
2018-09-18T00:24:03.252Z,4.13
2018-09-18T00:26:34.808Z,3.73
2018-09-18T00:29:06.870Z,3.90
2018-09-18T00:31:38.091Z,4.40
2018-09-18T00:34:09.545Z,4.27
2018-09-18T00:36:40.912Z,4.60
2018-09-18T00:39:12.447Z,4.50
2018-09-18T00:41:43.637Z,4.07
2018-09-18T00:44:15.034Z,3.87
2018-09-18T00:46:46.859Z,4.10
2018-09-18T00:49:18.236Z,3.87
2018-09-18T00:51:49.396Z,4.40
2018-09-18T00:54:20.816Z,4.00
2018-09-18T00:56:52.622Z,4.60
2018-09-18T00:59:23.987Z,4.10
2018-09-18T01:01:55.540Z,3.83
2018-09-18T01:04:26.887Z,4.17
2018-09-18T01:06:58.532Z,4.30
2018-09-18T01:09:29.935Z,4.10
2018-09-18T01:12:01.553Z,4.20
2018-09-18T01:14:34.559Z,4.37
2018-09-18T01:17:06.196Z,4.47
2018-09-18T01:19:37.961Z,4.70
2018-09-18T01:22:09.174Z,4.47
2018-09-18T01:24:40.144Z,4.50
2018-09-18T01:27:11.885Z,7.20
2018-09-18T01:29:43.029Z,31.10
2018-09-18T01:32:14.584Z,47.53
2018-09-18T01:34:45.974Z,25.50
2018-09-18T01:37:17.986Z,20.23
2018-09-18T01:39:49.828Z,18.60
2018-09-18T01:42:21.382Z,15.67
2018-09-18T01:44:53.183Z,18.80
2018-09-18T01:47:23.881Z,17.07
2018-09-18T01:49:55.627Z,17.83
2018-09-18T01:52:27.363Z,17.87
2018-09-18T01:54:58.687Z,12.87
2018-09-18T01:57:30.144Z,12.77
2018-09-18T02:00:01.609Z,10.13
2018-09-18T02:02:33.334Z,10.33
2018-09-18T02:05:04.902Z,9.90
2018-09-18T02:07:36.382Z,10.70
2018-09-18T02:10:07.151Z,8.63
2018-09-18T02:12:39.009Z,8.77
2018-09-18T02:15:10.087Z,8.53
2018-09-18T02:17:40.895Z,8.63
2018-09-18T02:20:12.532Z,9.57
2018-09-18T02:22:45.014Z,8.67
2018-09-18T02:25:16.540Z,8.07
2018-09-18T02:27:47.726Z,7.53
2018-09-18T02:30:19.247Z,6.67
2018-09-18T02:32:50.640Z,6.50
2018-09-18T02:35:22.219Z,7.13
2018-09-18T02:37:53.965Z,8.77
2018-09-18T02:40:25.974Z,6.50
2018-09-18T02:42:57.894Z,6.53
2018-09-18T02:45:29.434Z,6.33
2018-09-18T02:48:01.150Z,6.23
2018-09-18T02:50:32.463Z,6.33
2018-09-18T02:53:02.942Z,6.53
2018-09-18T02:55:34.640Z,7.13
2018-09-18T02:58:06.139Z,5.80
2018-09-18T03:00:37.440Z,6.93
2018-09-18T03:03:09.149Z,7.07
2018-09-18T03:05:41.096Z,8.33
2018-09-18T03:08:12.585Z,6.63
2018-09-18T03:10:44.257Z,7.07
2018-09-18T03:13:15.878Z,6.57
2018-09-18T03:15:46.807Z,5.83
2018-09-18T03:18:18.938Z,6.80
2018-09-18T03:20:49.847Z,7.30
2018-09-18T03:23:20.428Z,7.13
2018-09-18T03:25:51.676Z,6.93
2018-09-18T03:28:22.467Z,7.03
2018-09-18T03:30:53.954Z,8.87
2018-09-18T03:33:25.110Z,7.13
2018-09-18T03:35:56.316Z,6.10
2018-09-18T03:38:28.068Z,5.90
2018-09-18T03:40:59.628Z,6.10
2018-09-18T03:43:30.597Z,6.77
2018-09-18T03:46:01.309Z,6.43
2018-09-18T03:48:32.428Z,6.20
2018-09-18T03:51:03.268Z,6.30
2018-09-18T03:53:34.189Z,6.40
2018-09-18T03:56:05.480Z,6.83
2018-09-18T03:58:36.843Z,8.13
2018-09-18T04:01:08.330Z,6.90
2018-09-18T04:03:39.684Z,6.97
2018-09-18T04:06:10.950Z,7.83
2018-09-18T04:08:42.153Z,6.60
2018-09-18T04:11:13.514Z,7.00
2018-09-18T04:13:44.442Z,11.63
2018-09-18T04:16:15.834Z,15.63
2018-09-18T04:18:47.128Z,15.67
2018-09-18T04:21:18.429Z,15.70
2018-09-18T04:23:50.049Z,14.70
2018-09-18T04:26:21.797Z,14.23
2018-09-18T04:28:53.496Z,15.27
2018-09-18T04:31:25.154Z,14.40
2018-09-18T04:33:56.782Z,11.27
2018-09-18T04:36:28.938Z,12.40
2018-09-18T04:39:00.840Z,15.40
2018-09-18T04:41:32.429Z,16.10
2018-09-18T04:44:03.622Z,14.87
2018-09-18T04:46:34.556Z,15.63
2018-09-18T04:49:05.686Z,12.30
2018-09-18T04:51:36.774Z,11.97
2018-09-18T04:54:08.530Z,20.23
2018-09-18T04:56:39.896Z,19.23
2018-09-18T04:59:11.276Z,12.97
2018-09-18T05:01:42.618Z,16.83
2018-09-18T05:04:13.694Z,13.53
2018-09-18T05:06:44.860Z,10.80
2018-09-18T05:09:15.816Z,8.77
2018-09-18T05:11:47.191Z,12.83
2018-09-18T05:14:18.389Z,10.23
2018-09-18T05:16:49.797Z,8.27
2018-09-18T05:19:20.944Z,9.33
2018-09-18T05:21:52.290Z,9.17
2018-09-18T05:24:23.903Z,9.20
2018-09-18T05:26:54.842Z,7.87
2018-09-18T05:29:26.261Z,7.93
2018-09-18T05:31:57.688Z,10.80
2018-09-18T05:34:28.854Z,10.23
2018-09-18T05:37:00.350Z,9.27
2018-09-18T05:39:31.552Z,9.23
2018-09-18T05:42:03.172Z,10.00
2018-09-18T05:44:34.081Z,9.97
2018-09-18T05:47:05.597Z,8.23
2018-09-18T05:49:36.745Z,8.73
2018-09-18T05:52:07.807Z,8.20
2018-09-18T05:54:39.284Z,8.27
2018-09-18T05:57:10.452Z,6.97
2018-09-18T05:59:41.613Z,7.70
2018-09-18T06:02:12.811Z,14.73
2018-09-18T06:04:43.953Z,8.43
2018-09-18T06:07:15.351Z,10.67
2018-09-18T06:09:46.489Z,11.40
2018-09-18T06:12:17.791Z,9.43
2018-09-18T06:14:48.629Z,9.17
2018-09-18T06:17:19.821Z,8.57
2018-09-18T06:19:51.505Z,10.57
2018-09-18T13:13:21.823Z,5.70
2018-09-18T13:15:53.267Z,5.50
2018-09-18T13:18:25.112Z,5.53
2018-09-18T13:20:56.960Z,5.20
2018-09-18T13:23:28.197Z,5.58
2018-09-18T13:25:59.349Z,5.17
2018-09-18T13:28:30.680Z,5.47
2018-09-18T13:31:01.390Z,5.17
2018-09-18T13:33:33.570Z,5.03
2018-09-18T13:36:05.512Z,4.90
2018-09-18T13:38:37.308Z,5.12
2018-09-18T13:41:08.946Z,5.25
2018-09-18T13:43:40.438Z,5.17
2018-09-18T13:46:12.564Z,5.45
2018-09-18T13:48:45.099Z,5.10
2018-09-18T13:51:16.721Z,5.10
2018-09-18T13:53:48.110Z,5.25
2018-09-18T13:56:19.863Z,4.83
2018-09-18T13:58:50.733Z,4.70
2018-09-18T14:01:22.484Z,4.87
2018-09-18T14:03:53.599Z,5.05
2018-09-18T14:06:24.557Z,4.78
2018-09-18T14:08:55.497Z,4.58
2018-09-18T14:11:26.621Z,5.15
2018-09-18T14:13:58.220Z,4.75
2018-09-18T14:16:29.981Z,4.83
2018-09-18T14:19:01.521Z,4.72
2018-09-18T14:21:32.617Z,4.90
2018-09-18T14:24:03.895Z,4.60
2018-09-18T14:26:35.368Z,5.03
2018-09-18T14:29:06.182Z,4.67
2018-09-18T14:31:37.445Z,4.80
2018-09-18T14:34:08.713Z,4.80
2018-09-18T14:36:39.906Z,5.20
2018-09-18T14:39:11.895Z,4.50
2018-09-18T14:41:43.093Z,4.85
2018-09-18T14:44:14.695Z,4.83
2018-09-18T14:46:45.741Z,4.80
2018-09-18T14:49:16.592Z,5.00
2018-09-18T14:51:47.873Z,4.80
2018-09-18T14:54:19.422Z,5.45
2018-09-18T14:56:50.356Z,5.00
2018-09-18T14:59:21.781Z,4.92
2018-09-18T15:01:53.259Z,5.03
2018-09-18T15:04:24.199Z,5.55
2018-09-18T15:06:55.362Z,5.10
2018-09-18T15:09:26.565Z,5.22
2018-09-18T15:11:57.866Z,4.90
2018-09-18T15:14:28.924Z,5.50
2018-09-18T15:17:00.065Z,4.75
2018-09-18T15:19:31.136Z,4.60
2018-09-18T15:22:02.461Z,5.08
2018-09-18T15:24:33.572Z,4.75
2018-09-18T15:27:04.687Z,4.97
2018-09-18T15:29:36.967Z,4.90
2018-09-18T15:32:07.658Z,4.90
2018-09-18T15:34:39.823Z,4.40
2018-09-18T15:37:11.692Z,4.90
2018-09-18T15:39:43.269Z,6.25
2018-09-18T15:42:14.576Z,5.75
2018-09-18T15:44:46.139Z,5.00
2018-09-18T15:47:17.431Z,5.10
2018-09-18T15:49:49.305Z,4.63
2018-09-18T15:52:20.614Z,5.10
2018-09-18T15:54:50.908Z,5.10
2018-09-18T15:57:22.334Z,7.07
2018-09-18T15:59:53.635Z,4.83
2018-09-18T16:02:24.780Z,5.30
2018-09-18T16:04:56.174Z,5.23
2018-09-18T16:07:26.701Z,5.97
2018-09-18T16:09:57.315Z,4.77
2018-09-18T16:12:28.757Z,5.03
2018-09-18T16:14:59.839Z,5.00
2018-09-18T16:17:31.877Z,5.30
2018-09-18T16:20:03.523Z,4.87
2018-09-18T16:22:35.172Z,5.20
2018-09-18T16:25:06.895Z,5.03
2018-09-18T16:27:39.423Z,4.90
2018-09-18T16:30:10.656Z,5.10
2018-09-18T16:32:43.565Z,5.20
2018-09-18T16:35:16.060Z,5.33
2018-09-18T16:37:47.891Z,4.97
2018-09-18T16:40:20.154Z,5.10
2018-09-18T16:42:52.484Z,5.10
2018-09-18T16:45:24.753Z,5.00
2018-09-18T16:47:56.831Z,5.53
2018-09-18T16:50:27.811Z,5.20
2018-09-18T16:52:59.032Z,5.23
2018-09-18T16:55:31.415Z,5.80
2018-09-18T16:58:02.521Z,4.93
2018-09-18T17:00:33.766Z,5.80
2018-09-18T17:03:04.646Z,5.00
2018-09-18T17:05:36.529Z,5.10
2018-09-18T17:08:07.543Z,5.40
2018-09-18T17:10:38.560Z,5.40
2018-09-18T17:13:09.697Z,5.50
2018-09-18T17:15:41.494Z,5.37
2018-09-18T17:18:13.237Z,5.30
2018-09-18T17:20:44.903Z,8.83
2018-09-18T17:23:15.989Z,6.33
2018-09-18T17:25:47.015Z,6.50
2018-09-18T17:28:18.665Z,5.70
2018-09-18T17:30:51.047Z,5.70
2018-09-18T17:33:22.792Z,5.30
2018-09-18T17:35:54.842Z,5.37
2018-09-18T17:38:26.313Z,5.77
2018-09-18T17:40:58.155Z,5.33
2018-09-18T17:43:30.211Z,5.70
2018-09-18T17:46:01.981Z,6.17
2018-09-18T17:48:33.842Z,6.23
2018-09-18T17:51:05.747Z,5.87
2018-09-18T17:53:37.173Z,6.33
2018-09-18T17:56:08.835Z,5.97
2018-09-18T17:59:11.040Z,6.00
2018-09-18T18:01:43.258Z,6.40
2018-09-18T18:04:14.710Z,6.60
2018-09-18T18:06:46.389Z,7.90
2018-09-18T18:09:18.183Z,7.93
2018-09-18T18:11:49.988Z,7.83
2018-09-18T18:14:21.669Z,6.80
2018-09-18T18:16:53.921Z,6.07
2018-09-18T18:19:25.447Z,5.63
2018-09-18T18:21:57.380Z,5.17
2018-09-18T18:24:29.223Z,4.90
2018-09-18T18:27:01.652Z,4.40
2018-09-18T18:29:33.350Z,4.40
2018-09-18T18:32:05.618Z,4.20
2018-09-18T18:34:37.702Z,4.00
2018-09-18T18:37:09.430Z,4.17
2018-09-18T18:39:40.114Z,3.87
2018-09-18T18:42:11.361Z,4.10
2018-09-18T18:44:42.936Z,4.10
2018-09-18T18:47:14.491Z,4.03
2018-09-18T18:49:45.947Z,4.00
2018-09-18T18:52:18.073Z,3.83
2018-09-18T18:54:50.093Z,4.13
2018-09-18T18:57:21.997Z,3.83
2018-09-18T18:59:53.636Z,3.73
2018-09-18T19:02:25.165Z,3.67
2018-09-18T19:04:56.420Z,3.47
2018-09-18T19:07:28.232Z,3.87
2018-09-18T19:09:59.036Z,3.47
2018-09-18T19:12:31.112Z,2.90
2018-09-18T19:15:03.088Z,3.20
2018-09-18T19:17:34.297Z,3.60
2018-09-18T19:20:06.151Z,2.63
2018-09-18T19:22:37.830Z,2.60
2018-09-18T19:25:09.452Z,2.70
2018-09-18T19:27:41.322Z,2.30
2018-09-18T19:30:13.168Z,2.47
2018-09-18T19:32:44.764Z,2.40
2018-09-18T19:35:16.522Z,2.50
2018-09-18T19:37:48.196Z,2.10
2018-09-18T19:40:20.356Z,2.37
2018-09-18T19:42:52.446Z,2.47
2018-09-18T19:45:24.268Z,2.00
2018-09-18T19:47:56.693Z,2.10
2018-09-18T19:50:28.123Z,2.20
2018-09-18T19:52:59.679Z,1.97
2018-09-18T19:55:31.329Z,2.10
2018-09-18T19:58:02.637Z,2.00
2018-09-18T20:00:34.064Z,1.83
2018-09-18T20:03:05.785Z,2.10
2018-09-18T20:05:36.750Z,2.30
2018-09-18T20:08:07.169Z,2.30
2018-09-18T20:10:38.696Z,2.20
2018-09-18T20:13:09.891Z,2.13
2018-09-18T20:15:41.506Z,2.30
2018-09-18T20:18:11.982Z,2.17
2018-09-18T20:20:44.173Z,2.00
2018-09-18T20:23:16.006Z,2.13
2018-09-18T20:25:47.730Z,2.20
2018-09-18T20:28:19.401Z,2.17
2018-09-18T20:30:50.538Z,2.00
2018-09-18T20:33:22.247Z,2.13
2018-09-18T20:35:53.665Z,2.17
2018-09-18T20:38:25.349Z,1.83
2018-09-18T20:40:55.565Z,2.00
2018-09-18T20:43:26.377Z,2.17
2018-09-18T20:45:57.373Z,2.27
2018-09-18T20:48:29.443Z,2.30
2018-09-18T20:51:00.776Z,2.13
2018-09-18T20:53:31.446Z,2.13
2018-09-18T20:56:02.193Z,2.10
2018-09-18T20:58:32.859Z,2.13
2018-09-18T21:01:04.041Z,2.03
2018-09-18T21:06:11.477Z,2.43
2018-09-18T21:08:42.743Z,2.70
2018-09-18T21:11:14.251Z,1.73
2018-09-18T21:13:45.138Z,1.93
2018-09-18T21:16:16.976Z,2.00
2018-09-18T21:18:48.484Z,2.20
2018-09-18T21:21:20.036Z,2.00
2018-09-18T21:23:51.868Z,2.00
2018-09-18T21:26:23.293Z,2.20
2018-09-18T21:28:54.578Z,1.70
2018-09-18T21:31:26.014Z,2.23
2018-09-18T21:33:57.636Z,2.13
2018-09-18T21:36:28.751Z,2.33
2018-09-18T21:39:00.165Z,2.30
2018-09-18T21:41:30.963Z,2.30
2018-09-18T21:44:02.344Z,2.03
2018-09-18T21:46:33.420Z,2.37
2018-09-18T21:49:05.505Z,1.87
2018-09-18T21:51:36.522Z,2.20
2018-09-18T21:54:07.702Z,2.20
2018-09-18T21:56:39.149Z,2.20
2018-09-18T21:59:10.263Z,1.80
2018-09-18T22:01:41.587Z,2.37
2018-09-18T22:04:12.763Z,2.23
2018-09-18T22:06:43.650Z,2.47
2018-09-18T22:09:14.536Z,2.20
2018-09-18T22:11:45.578Z,2.10
2018-09-18T22:14:15.913Z,1.97
2018-09-18T22:16:47.429Z,2.13
2018-09-18T22:19:18.901Z,2.13
2018-09-18T22:21:50.260Z,2.20
2018-09-18T22:24:22.093Z,2.27
2018-09-18T22:26:53.030Z,2.40
2018-09-18T22:29:25.041Z,2.20
2018-09-18T22:31:56.139Z,2.60
2018-09-18T22:34:27.624Z,2.07
2018-09-18T22:36:58.735Z,2.50
2018-09-18T22:39:29.784Z,2.30
2018-09-18T22:42:01.505Z,1.93
2018-09-18T22:44:32.657Z,2.20
2018-09-18T22:49:39.622Z,2.63
2018-09-18T22:52:11.317Z,2.10
2018-09-18T22:54:42.926Z,2.40
2018-09-18T22:57:14.491Z,2.33
2018-09-18T22:59:46.099Z,1.90
2018-09-18T23:02:17.384Z,2.43
2018-09-18T23:04:48.803Z,2.60
2018-09-18T23:07:20.000Z,2.30
2018-09-18T23:09:51.249Z,2.03
2018-09-18T23:12:22.949Z,2.30
2018-09-18T23:14:54.014Z,2.47
2018-09-18T23:17:24.926Z,2.37
2018-09-18T23:19:56.319Z,2.33
2018-09-18T23:22:27.462Z,2.20
2018-09-18T23:24:58.766Z,2.47
2018-09-18T23:27:29.910Z,2.43
2018-09-18T23:30:01.478Z,2.40
2018-09-18T23:32:32.516Z,2.40
2018-09-18T23:35:03.585Z,2.50
2018-09-18T23:37:35.021Z,2.27
2018-09-18T23:40:05.597Z,2.27
2018-09-18T23:42:36.732Z,2.60
2018-09-18T23:45:08.333Z,2.67
2018-09-18T23:47:39.937Z,2.60
2018-09-18T23:50:11.455Z,2.83
2018-09-18T23:52:42.784Z,3.10
2018-09-18T23:55:14.067Z,2.80
2018-09-18T23:57:45.340Z,2.70
